sensor_id;sensor_type;location;lat;lon;timestamp;temperature;humidity
15083;DHT22;7640;53.116;6.878;2022-09-04T00:00:11;17.50;95.40
15083;DHT22;7640;53.116;6.878;2022-09-04T00:03:03;17.40;95.40
15083;DHT22;7640;53.116;6.878;2022-09-04T00:05:46;17.40;95.40
15083;DHT22;7640;53.116;6.878;2022-09-04T00:08:29;17.40;95.50
15083;DHT22;7640;53.116;6.878;2022-09-04T00:11:13;17.40;95.50
15083;DHT22;7640;53.116;6.878;2022-09-04T00:13:55;17.30;95.70
15083;DHT22;7640;53.116;6.878;2022-09-04T00:16:27;17.30;95.80
15083;DHT22;7640;53.116;6.878;2022-09-04T00:19:08;17.30;95.90
15083;DHT22;7640;53.116;6.878;2022-09-04T00:21:44;17.20;95.90
15083;DHT22;7640;53.116;6.878;2022-09-04T00:24:17;17.20;96.00
15083;DHT22;7640;53.116;6.878;2022-09-04T00:26:51;17.20;96.00
15083;DHT22;7640;53.116;6.878;2022-09-04T00:29:30;17.10;96.00
15083;DHT22;7640;53.116;6.878;2022-09-04T00:32:09;17.10;96.10
15083;DHT22;7640;53.116;6.878;2022-09-04T00:34:55;17.10;96.20
15083;DHT22;7640;53.116;6.878;2022-09-04T00:37:32;17.10;96.30
15083;DHT22;7640;53.116;6.878;2022-09-04T00:40:06;17.00;96.40
15083;DHT22;7640;53.116;6.878;2022-09-04T00:46:07;17.00;96.50
15083;DHT22;7640;53.116;6.878;2022-09-04T00:49:04;16.90;96.50
15083;DHT22;7640;53.116;6.878;2022-09-04T00:51:55;16.90;96.70
15083;DHT22;7640;53.116;6.878;2022-09-04T00:54:49;16.80;97.10
15083;DHT22;7640;53.116;6.878;2022-09-04T00:57:54;16.80;96.90
15083;DHT22;7640;53.116;6.878;2022-09-04T01:00:31;16.80;97.00
15083;DHT22;7640;53.116;6.878;2022-09-04T01:06:26;16.80;97.20
15083;DHT22;7640;53.116;6.878;2022-09-04T01:09:18;16.70;97.20
15083;DHT22;7640;53.116;6.878;2022-09-04T01:12:03;16.70;97.30
15083;DHT22;7640;53.116;6.878;2022-09-04T01:14:39;16.70;97.40
15083;DHT22;7640;53.116;6.878;2022-09-04T01:17:23;16.60;97.40
15083;DHT22;7640;53.116;6.878;2022-09-04T01:20:02;16.60;97.50
15083;DHT22;7640;53.116;6.878;2022-09-04T01:23:00;16.60;97.60
15083;DHT22;7640;53.116;6.878;2022-09-04T01:25:57;16.50;97.60
15083;DHT22;7640;53.116;6.878;2022-09-04T01:28:34;16.50;97.70
15083;DHT22;7640;53.116;6.878;2022-09-04T01:31:19;16.50;97.80
15083;DHT22;7640;53.116;6.878;2022-09-04T01:34:01;16.50;97.90
15083;DHT22;7640;53.116;6.878;2022-09-04T01:36:37;16.50;98.00
15083;DHT22;7640;53.116;6.878;2022-09-04T01:39:10;16.40;98.00
15083;DHT22;7640;53.116;6.878;2022-09-04T01:41:44;16.40;98.00
15083;DHT22;7640;53.116;6.878;2022-09-04T01:44:15;16.40;98.10
15083;DHT22;7640;53.116;6.878;2022-09-04T01:46:47;16.30;98.10
15083;DHT22;7640;53.116;6.878;2022-09-04T01:49:30;16.40;98.20
15083;DHT22;7640;53.116;6.878;2022-09-04T01:52:25;16.30;98.20
15083;DHT22;7640;53.116;6.878;2022-09-04T01:55:11;16.30;98.30
15083;DHT22;7640;53.116;6.878;2022-09-04T01:57:53;16.30;98.40
15083;DHT22;7640;53.116;6.878;2022-09-04T02:00:29;16.30;98.40
15083;DHT22;7640;53.116;6.878;2022-09-04T02:03:07;16.20;98.40
15083;DHT22;7640;53.116;6.878;2022-09-04T02:05:52;16.20;98.50
15083;DHT22;7640;53.116;6.878;2022-09-04T02:08:36;16.20;98.60
15083;DHT22;7640;53.116;6.878;2022-09-04T02:11:14;16.20;98.70
15083;DHT22;7640;53.116;6.878;2022-09-04T02:13:58;16.20;98.80
15083;DHT22;7640;53.116;6.878;2022-09-04T02:16:43;16.20;98.80
15083;DHT22;7640;53.116;6.878;2022-09-04T02:19:21;16.10;98.90
15083;DHT22;7640;53.116;6.878;2022-09-04T02:22:02;16.10;98.90
15083;DHT22;7640;53.116;6.878;2022-09-04T02:24:45;16.10;99.00
15083;DHT22;7640;53.116;6.878;2022-09-04T02:27:24;16.10;99.10
15083;DHT22;7640;53.116;6.878;2022-09-04T02:30:00;16.10;99.10
15083;DHT22;7640;53.116;6.878;2022-09-04T02:32:36;16.00;99.30
15083;DHT22;7640;53.116;6.878;2022-09-04T02:35:21;16.00;99.40
15083;DHT22;7640;53.116;6.878;2022-09-04T02:38:00;16.00;99.50
15083;DHT22;7640;53.116;6.878;2022-09-04T02:40:40;15.90;99.60
15083;DHT22;7640;53.116;6.878;2022-09-04T02:43:35;15.90;99.60
15083;DHT22;7640;53.116;6.878;2022-09-04T02:46:15;15.90;99.70
15083;DHT22;7640;53.116;6.878;2022-09-04T02:48:57;15.90;99.70
15083;DHT22;7640;53.116;6.878;2022-09-04T02:51:46;15.90;99.80
15083;DHT22;7640;53.116;6.878;2022-09-04T02:54:37;15.90;99.80
15083;DHT22;7640;53.116;6.878;2022-09-04T02:57:20;15.90;99.90
15083;DHT22;7640;53.116;6.878;2022-09-04T03:00:00;15.80;99.90
15083;DHT22;7640;53.116;6.878;2022-09-04T03:02:41;15.90;99.90
15083;DHT22;7640;53.116;6.878;2022-09-04T03:05:18;15.80;99.90
15083;DHT22;7640;53.116;6.878;2022-09-04T03:07:55;15.80;99.90
15083;DHT22;7640;53.116;6.878;2022-09-04T03:10:29;15.80;99.90
15083;DHT22;7640;53.116;6.878;2022-09-04T03:13:04;15.70;99.90
15083;DHT22;7640;53.116;6.878;2022-09-04T03:15:39;15.70;99.90
15083;DHT22;7640;53.116;6.878;2022-09-04T03:18:16;15.70;99.90
15083;DHT22;7640;53.116;6.878;2022-09-04T03:20:55;15.70;99.90
15083;DHT22;7640;53.116;6.878;2022-09-04T03:23:31;15.70;99.90
15083;DHT22;7640;53.116;6.878;2022-09-04T03:26:18;15.60;99.90
15083;DHT22;7640;53.116;6.878;2022-09-04T03:28:57;15.60;99.90
15083;DHT22;7640;53.116;6.878;2022-09-04T03:31:39;15.60;99.90
15083;DHT22;7640;53.116;6.878;2022-09-04T03:34:19;15.60;99.90
15083;DHT22;7640;53.116;6.878;2022-09-04T03:37:06;15.60;99.90
15083;DHT22;7640;53.116;6.878;2022-09-04T03:39:50;15.50;99.90
15083;DHT22;7640;53.116;6.878;2022-09-04T03:42:30;15.50;99.90
15083;DHT22;7640;53.116;6.878;2022-09-04T03:45:15;15.50;99.90
15083;DHT22;7640;53.116;6.878;2022-09-04T03:48:00;15.50;99.90
15083;DHT22;7640;53.116;6.878;2022-09-04T03:50:43;15.50;99.90
15083;DHT22;7640;53.116;6.878;2022-09-04T03:53:23;15.40;99.90
15083;DHT22;7640;53.116;6.878;2022-09-04T03:59:16;15.40;99.90
15083;DHT22;7640;53.116;6.878;2022-09-04T04:01:56;15.30;99.90
15083;DHT22;7640;53.116;6.878;2022-09-04T04:04:42;15.30;99.90
15083;DHT22;7640;53.116;6.878;2022-09-04T04:07:27;15.30;99.90
15083;DHT22;7640;53.116;6.878;2022-09-04T04:10:15;15.20;99.90
15083;DHT22;7640;53.116;6.878;2022-09-04T04:13:04;15.20;99.90
15083;DHT22;7640;53.116;6.878;2022-09-04T04:16:02;15.20;99.90
15083;DHT22;7640;53.116;6.878;2022-09-04T04:18:48;15.20;99.90
15083;DHT22;7640;53.116;6.878;2022-09-04T04:21:51;15.20;99.90
15083;DHT22;7640;53.116;6.878;2022-09-04T04:24:45;15.10;99.90
15083;DHT22;7640;53.116;6.878;2022-09-04T04:27:31;15.10;99.90
15083;DHT22;7640;53.116;6.878;2022-09-04T04:30:09;15.10;99.90
15083;DHT22;7640;53.116;6.878;2022-09-04T04:32:49;15.10;99.90
15083;DHT22;7640;53.116;6.878;2022-09-04T04:35:40;15.10;99.90
15083;DHT22;7640;53.116;6.878;2022-09-04T04:38:27;15.10;99.90
15083;DHT22;7640;53.116;6.878;2022-09-04T04:41:26;15.00;99.90
15083;DHT22;7640;53.116;6.878;2022-09-04T04:44:24;15.00;99.90
15083;DHT22;7640;53.116;6.878;2022-09-04T04:47:24;14.90;99.90
15083;DHT22;7640;53.116;6.878;2022-09-04T04:50:07;15.20;99.90
15083;DHT22;7640;53.116;6.878;2022-09-04T04:52:49;15.10;99.90
15083;DHT22;7640;53.116;6.878;2022-09-04T04:55:31;15.10;99.90
15083;DHT22;7640;53.116;6.878;2022-09-04T04:58:38;15.10;99.90
15083;DHT22;7640;53.116;6.878;2022-09-04T05:01:25;15.00;99.90
15083;DHT22;7640;53.116;6.878;2022-09-04T05:04:07;15.00;99.90
15083;DHT22;7640;53.116;6.878;2022-09-04T05:06:46;15.00;99.90
15083;DHT22;7640;53.116;6.878;2022-09-04T05:09:24;15.00;99.90
15083;DHT22;7640;53.116;6.878;2022-09-04T05:12:04;15.00;99.90
15083;DHT22;7640;53.116;6.878;2022-09-04T05:14:46;15.00;99.90
15083;DHT22;7640;53.116;6.878;2022-09-04T05:17:24;15.00;99.90
15083;DHT22;7640;53.116;6.878;2022-09-04T05:20:17;15.00;99.90
15083;DHT22;7640;53.116;6.878;2022-09-04T05:23:04;15.00;99.90
15083;DHT22;7640;53.116;6.878;2022-09-04T05:25:44;15.00;99.90
15083;DHT22;7640;53.116;6.878;2022-09-04T05:28:23;15.00;99.90
15083;DHT22;7640;53.116;6.878;2022-09-04T05:31:03;15.00;99.90
15083;DHT22;7640;53.116;6.878;2022-09-04T05:33:41;14.90;99.90
15083;DHT22;7640;53.116;6.878;2022-09-04T05:36:20;15.00;99.90
15083;DHT22;7640;53.116;6.878;2022-09-04T05:39:01;15.00;99.90
15083;DHT22;7640;53.116;6.878;2022-09-04T05:41:38;15.00;99.90
15083;DHT22;7640;53.116;6.878;2022-09-04T05:44:29;15.00;99.90
15083;DHT22;7640;53.116;6.878;2022-09-04T05:47:16;15.00;99.90
15083;DHT22;7640;53.116;6.878;2022-09-04T05:50:25;15.10;99.90
15083;DHT22;7640;53.116;6.878;2022-09-04T05:53:18;15.10;99.90
15083;DHT22;7640;53.116;6.878;2022-09-04T05:56:06;15.10;99.90
15083;DHT22;7640;53.116;6.878;2022-09-04T05:58:57;15.20;99.90
15083;DHT22;7640;53.116;6.878;2022-09-04T06:01:55;15.20;99.90
15083;DHT22;7640;53.116;6.878;2022-09-04T06:04:47;15.30;99.90
15083;DHT22;7640;53.116;6.878;2022-09-04T06:07:26;15.30;99.90
15083;DHT22;7640;53.116;6.878;2022-09-04T06:10:05;15.40;99.90
15083;DHT22;7640;53.116;6.878;2022-09-04T06:13:04;15.40;99.90
15083;DHT22;7640;53.116;6.878;2022-09-04T06:16:01;15.50;99.90
15083;DHT22;7640;53.116;6.878;2022-09-04T06:18:50;15.60;99.90
15083;DHT22;7640;53.116;6.878;2022-09-04T06:22:05;15.60;99.90
15083;DHT22;7640;53.116;6.878;2022-09-04T06:24:49;15.70;99.90
15083;DHT22;7640;53.116;6.878;2022-09-04T06:27:40;15.70;99.90
15083;DHT22;7640;53.116;6.878;2022-09-04T06:30:24;15.80;99.90
15083;DHT22;7640;53.116;6.878;2022-09-04T06:39:07;16.10;99.90
15083;DHT22;7640;53.116;6.878;2022-09-04T06:41:57;16.20;99.90
15083;DHT22;7640;53.116;6.878;2022-09-04T06:44:46;16.30;99.90
15083;DHT22;7640;53.116;6.878;2022-09-04T06:47:28;16.40;99.90
15083;DHT22;7640;53.116;6.878;2022-09-04T06:50:19;16.50;99.90
15083;DHT22;7640;53.116;6.878;2022-09-04T06:53:06;16.60;99.90
15083;DHT22;7640;53.116;6.878;2022-09-04T06:56:01;16.70;99.90
15083;DHT22;7640;53.116;6.878;2022-09-04T06:59:02;16.80;99.90
15083;DHT22;7640;53.116;6.878;2022-09-04T07:01:50;17.00;99.90
15083;DHT22;7640;53.116;6.878;2022-09-04T07:04:39;17.10;99.90
15083;DHT22;7640;53.116;6.878;2022-09-04T07:07:20;17.20;99.90
15083;DHT22;7640;53.116;6.878;2022-09-04T07:09:55;17.30;99.90
15083;DHT22;7640;53.116;6.878;2022-09-04T07:12:54;17.30;99.90
15083;DHT22;7640;53.116;6.878;2022-09-04T07:16:11;17.40;99.90
15083;DHT22;7640;53.116;6.878;2022-09-04T07:19:04;17.50;99.90
15083;DHT22;7640;53.116;6.878;2022-09-04T07:21:43;17.60;99.90
15083;DHT22;7640;53.116;6.878;2022-09-04T07:24:38;17.80;99.90
15083;DHT22;7640;53.116;6.878;2022-09-04T07:27:16;17.90;99.90
15083;DHT22;7640;53.116;6.878;2022-09-04T07:30:04;18.00;99.90
15083;DHT22;7640;53.116;6.878;2022-09-04T07:32:38;18.10;99.90
15083;DHT22;7640;53.116;6.878;2022-09-04T07:35:14;18.20;99.90
15083;DHT22;7640;53.116;6.878;2022-09-04T07:37:51;18.40;99.90
15083;DHT22;7640;53.116;6.878;2022-09-04T07:40:28;18.50;99.90
15083;DHT22;7640;53.116;6.878;2022-09-04T07:43:08;18.70;99.90
15083;DHT22;7640;53.116;6.878;2022-09-04T07:45:43;18.80;99.90
15083;DHT22;7640;53.116;6.878;2022-09-04T07:48:22;18.90;99.90
15083;DHT22;7640;53.116;6.878;2022-09-04T07:50:57;19.00;99.90
15083;DHT22;7640;53.116;6.878;2022-09-04T07:53:50;19.10;99.90
15083;DHT22;7640;53.116;6.878;2022-09-04T07:56:33;19.30;99.90
15083;DHT22;7640;53.116;6.878;2022-09-04T07:59:37;19.40;99.90
15083;DHT22;7640;53.116;6.878;2022-09-04T08:02:29;19.60;99.90
15083;DHT22;7640;53.116;6.878;2022-09-04T08:05:22;19.70;99.90
15083;DHT22;7640;53.116;6.878;2022-09-04T08:11:15;19.90;99.90
15083;DHT22;7640;53.116;6.878;2022-09-04T08:17:35;20.20;99.80
15083;DHT22;7640;53.116;6.878;2022-09-04T08:20:19;20.40;99.50
15083;DHT22;7640;53.116;6.878;2022-09-04T08:23:01;20.50;99.60
15083;DHT22;7640;53.116;6.878;2022-09-04T08:25:49;20.60;99.50
15083;DHT22;7640;53.116;6.878;2022-09-04T08:28:34;20.80;99.40
15083;DHT22;7640;53.116;6.878;2022-09-04T08:31:17;20.90;99.20
15083;DHT22;7640;53.116;6.878;2022-09-04T08:34:22;21.10;99.00
15083;DHT22;7640;53.116;6.878;2022-09-04T08:37:06;21.20;99.00
15083;DHT22;7640;53.116;6.878;2022-09-04T08:39:56;21.40;98.80
15083;DHT22;7640;53.116;6.878;2022-09-04T08:42:55;21.50;98.30
15083;DHT22;7640;53.116;6.878;2022-09-04T08:56:25;22.10;97.70
15083;DHT22;7640;53.116;6.878;2022-09-04T08:59:23;22.20;97.60
15083;DHT22;7640;53.116;6.878;2022-09-04T09:02:32;22.40;97.90
15083;DHT22;7640;53.116;6.878;2022-09-04T09:15:51;23.30;97.00
15083;DHT22;7640;53.116;6.878;2022-09-04T09:21:42;23.70;96.00
15083;DHT22;7640;53.116;6.878;2022-09-04T09:31:21;24.10;94.90
15083;DHT22;7640;53.116;6.878;2022-09-04T09:34:13;24.20;94.80
15083;DHT22;7640;53.116;6.878;2022-09-04T09:40:40;24.50;94.50
15083;DHT22;7640;53.116;6.878;2022-09-04T09:43:56;24.60;94.20
15083;DHT22;7640;53.116;6.878;2022-09-04T09:53:49;25.00;93.80
15083;DHT22;7640;53.116;6.878;2022-09-04T10:00:05;25.30;93.10
15083;DHT22;7640;53.116;6.878;2022-09-04T10:03:13;25.40;92.90
15083;DHT22;7640;53.116;6.878;2022-09-04T10:06:27;25.50;92.80
15083;DHT22;7640;53.116;6.878;2022-09-04T10:09:31;25.60;92.60
15083;DHT22;7640;53.116;6.878;2022-09-04T10:12:48;25.80;92.30
15083;DHT22;7640;53.116;6.878;2022-09-04T10:16:01;25.80;92.40
15083;DHT22;7640;53.116;6.878;2022-09-04T10:19:21;25.90;92.30
15083;DHT22;7640;53.116;6.878;2022-09-04T10:22:27;26.00;91.80
15083;DHT22;7640;53.116;6.878;2022-09-04T10:25:47;26.20;91.70
15083;DHT22;7640;53.116;6.878;2022-09-04T10:28:47;26.30;91.30
15083;DHT22;7640;53.116;6.878;2022-09-04T10:31:35;26.40;91.10
15083;DHT22;7640;53.116;6.878;2022-09-04T10:34:33;26.50;90.70
15083;DHT22;7640;53.116;6.878;2022-09-04T10:37:36;26.60;90.30
15083;DHT22;7640;53.116;6.878;2022-09-04T10:40:24;26.80;90.10
15083;DHT22;7640;53.116;6.878;2022-09-04T10:43:24;27.00;90.00
15083;DHT22;7640;53.116;6.878;2022-09-04T10:46:07;27.10;88.90
15083;DHT22;7640;53.116;6.878;2022-09-04T10:49:04;27.20;89.30
15083;DHT22;7640;53.116;6.878;2022-09-04T10:52:10;27.40;89.30
15083;DHT22;7640;53.116;6.878;2022-09-04T10:55:15;27.50;88.90
15083;DHT22;7640;53.116;6.878;2022-09-04T10:58:25;27.70;87.80
15083;DHT22;7640;53.116;6.878;2022-09-04T11:04:34;27.90;87.20
15083;DHT22;7640;53.116;6.878;2022-09-04T11:07:33;28.00;86.70
15083;DHT22;7640;53.116;6.878;2022-09-04T11:10:19;28.10;86.90
15083;DHT22;7640;53.116;6.878;2022-09-04T11:13:35;28.30;86.80
15083;DHT22;7640;53.116;6.878;2022-09-04T11:16:49;28.50;86.30
15083;DHT22;7640;53.116;6.878;2022-09-04T11:20:31;28.60;85.50
15083;DHT22;7640;53.116;6.878;2022-09-04T11:27:12;28.80;84.90
15083;DHT22;7640;53.116;6.878;2022-09-04T11:30:03;28.80;85.00
15083;DHT22;7640;53.116;6.878;2022-09-04T11:33:18;28.80;84.90
15083;DHT22;7640;53.116;6.878;2022-09-04T11:39:48;28.90;84.00
15083;DHT22;7640;53.116;6.878;2022-09-04T11:42:33;29.00;83.70
15083;DHT22;7640;53.116;6.878;2022-09-04T11:48:37;29.30;83.80
15083;DHT22;7640;53.116;6.878;2022-09-04T11:51:35;29.70;83.50
15083;DHT22;7640;53.116;6.878;2022-09-04T11:54:52;30.00;82.20
15083;DHT22;7640;53.116;6.878;2022-09-04T11:57:39;30.30;81.40
15083;DHT22;7640;53.116;6.878;2022-09-04T12:00:16;30.50;81.20
15083;DHT22;7640;53.116;6.878;2022-09-04T12:03:34;30.80;81.10
15083;DHT22;7640;53.116;6.878;2022-09-04T12:06:24;31.10;78.60
15083;DHT22;7640;53.116;6.878;2022-09-04T12:09:13;31.30;79.80
15083;DHT22;7640;53.116;6.878;2022-09-04T12:15:56;31.60;77.80
15083;DHT22;7640;53.116;6.878;2022-09-04T12:19:03;31.70;78.10
15083;DHT22;7640;53.116;6.878;2022-09-04T12:25:37;32.00;76.70
15083;DHT22;7640;53.116;6.878;2022-09-04T12:35:18;32.70;74.50
15083;DHT22;7640;53.116;6.878;2022-09-04T12:38:30;33.00;73.70
15083;DHT22;7640;53.116;6.878;2022-09-04T12:41:07;33.30;73.40
15083;DHT22;7640;53.116;6.878;2022-09-04T12:43:51;33.40;72.70
15083;DHT22;7640;53.116;6.878;2022-09-04T12:46:38;33.60;72.50
15083;DHT22;7640;53.116;6.878;2022-09-04T12:49:31;33.70;72.80
15083;DHT22;7640;53.116;6.878;2022-09-04T12:52:17;33.80;71.60
15083;DHT22;7640;53.116;6.878;2022-09-04T12:54:58;33.90;71.70
15083;DHT22;7640;53.116;6.878;2022-09-04T12:57:40;34.10;70.90
15083;DHT22;7640;53.116;6.878;2022-09-04T13:00:14;34.30;71.00
15083;DHT22;7640;53.116;6.878;2022-09-04T13:02:50;34.50;69.40
15083;DHT22;7640;53.116;6.878;2022-09-04T13:05:37;34.70;68.80
15083;DHT22;7640;53.116;6.878;2022-09-04T13:08:29;34.90;68.50
15083;DHT22;7640;53.116;6.878;2022-09-04T13:11:13;35.30;69.20
15083;DHT22;7640;53.116;6.878;2022-09-04T13:13:54;35.60;67.80
15083;DHT22;7640;53.116;6.878;2022-09-04T13:16:39;35.90;66.30
15083;DHT22;7640;53.116;6.878;2022-09-04T13:19:16;36.10;66.20
15083;DHT22;7640;53.116;6.878;2022-09-04T13:22:01;36.20;65.40
15083;DHT22;7640;53.116;6.878;2022-09-04T13:24:47;36.40;64.70
15083;DHT22;7640;53.116;6.878;2022-09-04T13:27:30;36.60;65.30
15083;DHT22;7640;53.116;6.878;2022-09-04T13:30:07;36.90;63.80
15083;DHT22;7640;53.116;6.878;2022-09-04T13:32:49;36.90;63.70
15083;DHT22;7640;53.116;6.878;2022-09-04T13:35:40;37.00;62.90
15083;DHT22;7640;53.116;6.878;2022-09-04T13:38:35;37.00;63.90
15083;DHT22;7640;53.116;6.878;2022-09-04T13:41:47;37.20;64.10
15083;DHT22;7640;53.116;6.878;2022-09-04T13:47:38;37.50;63.20
15083;DHT22;7640;53.116;6.878;2022-09-04T13:50:16;37.90;61.40
15083;DHT22;7640;53.116;6.878;2022-09-04T13:52:54;38.00;61.80
15083;DHT22;7640;53.116;6.878;2022-09-04T13:55:27;38.20;61.10
15083;DHT22;7640;53.116;6.878;2022-09-04T13:58:04;38.40;60.60
15083;DHT22;7640;53.116;6.878;2022-09-04T14:00:40;38.40;60.40
15083;DHT22;7640;53.116;6.878;2022-09-04T14:03:28;38.40;60.80
15083;DHT22;7640;53.116;6.878;2022-09-04T14:05:59;38.60;61.40
15083;DHT22;7640;53.116;6.878;2022-09-04T14:08:29;38.80;61.40
15083;DHT22;7640;53.116;6.878;2022-09-04T14:11:32;38.90;59.90
15083;DHT22;7640;53.116;6.878;2022-09-04T14:17:57;39.10;59.80
15083;DHT22;7640;53.116;6.878;2022-09-04T14:20:48;38.90;59.50
15083;DHT22;7640;53.116;6.878;2022-09-04T14:23:37;38.70;59.50
15083;DHT22;7640;53.116;6.878;2022-09-04T14:26:19;38.60;59.60
15083;DHT22;7640;53.116;6.878;2022-09-04T14:28:58;38.60;59.70
15083;DHT22;7640;53.116;6.878;2022-09-04T14:31:36;38.50;60.00
15083;DHT22;7640;53.116;6.878;2022-09-04T14:34:19;38.50;59.70
15083;DHT22;7640;53.116;6.878;2022-09-04T14:36:58;38.50;59.70
15083;DHT22;7640;53.116;6.878;2022-09-04T14:39:39;38.50;59.30
15083;DHT22;7640;53.116;6.878;2022-09-04T14:42:22;38.40;59.60
15083;DHT22;7640;53.116;6.878;2022-09-04T14:45:04;38.30;59.20
15083;DHT22;7640;53.116;6.878;2022-09-04T14:47:43;38.20;59.30
15083;DHT22;7640;53.116;6.878;2022-09-04T14:50:16;38.20;58.90
15083;DHT22;7640;53.116;6.878;2022-09-04T14:52:47;38.30;59.80
15083;DHT22;7640;53.116;6.878;2022-09-04T14:55:24;38.50;59.50
15083;DHT22;7640;53.116;6.878;2022-09-04T14:57:57;38.60;59.20
15083;DHT22;7640;53.116;6.878;2022-09-04T15:00:32;38.70;59.50
15083;DHT22;7640;53.116;6.878;2022-09-04T15:03:07;38.80;59.50
15083;DHT22;7640;53.116;6.878;2022-09-04T15:05:45;39.00;58.90
15083;DHT22;7640;53.116;6.878;2022-09-04T15:08:27;39.10;59.10
15083;DHT22;7640;53.116;6.878;2022-09-04T15:11:03;39.50;58.70
15083;DHT22;7640;53.116;6.878;2022-09-04T15:13:46;39.90;58.70
15083;DHT22;7640;53.116;6.878;2022-09-04T15:16:25;40.30;58.00
15083;DHT22;7640;53.116;6.878;2022-09-04T15:19:18;40.60;58.40
15083;DHT22;7640;53.116;6.878;2022-09-04T15:21:58;40.80;57.50
15083;DHT22;7640;53.116;6.878;2022-09-04T15:24:33;41.00;57.20
15083;DHT22;7640;53.116;6.878;2022-09-04T15:27:10;41.10;57.10
15083;DHT22;7640;53.116;6.878;2022-09-04T15:29:56;41.10;56.50
15083;DHT22;7640;53.116;6.878;2022-09-04T15:32:31;41.40;56.00
15083;DHT22;7640;53.116;6.878;2022-09-04T15:35:16;41.40;55.70
15083;DHT22;7640;53.116;6.878;2022-09-04T15:37:50;41.50;55.50
15083;DHT22;7640;53.116;6.878;2022-09-04T15:40:24;41.50;55.60
15083;DHT22;7640;53.116;6.878;2022-09-04T15:43:02;41.70;55.70
15083;DHT22;7640;53.116;6.878;2022-09-04T15:45:41;41.90;55.40
15083;DHT22;7640;53.116;6.878;2022-09-04T15:48:32;42.30;55.20
15083;DHT22;7640;53.116;6.878;2022-09-04T15:51:17;42.40;54.90
15083;DHT22;7640;53.116;6.878;2022-09-04T15:54:11;42.40;54.80
15083;DHT22;7640;53.116;6.878;2022-09-04T15:56:47;42.40;54.60
15083;DHT22;7640;53.116;6.878;2022-09-04T15:59:30;42.40;55.40
15083;DHT22;7640;53.116;6.878;2022-09-04T16:02:07;42.50;54.60
15083;DHT22;7640;53.116;6.878;2022-09-04T16:04:51;42.60;54.60
15083;DHT22;7640;53.116;6.878;2022-09-04T16:07:38;42.60;54.10
15083;DHT22;7640;53.116;6.878;2022-09-04T16:10:16;42.70;54.20
15083;DHT22;7640;53.116;6.878;2022-09-04T16:12:55;42.60;53.90
15083;DHT22;7640;53.116;6.878;2022-09-04T16:15:28;42.40;53.90
15083;DHT22;7640;53.116;6.878;2022-09-04T16:18:07;42.30;54.10
15083;DHT22;7640;53.116;6.878;2022-09-04T16:20:47;42.10;54.00
15083;DHT22;7640;53.116;6.878;2022-09-04T16:23:27;42.00;53.90
15083;DHT22;7640;53.116;6.878;2022-09-04T16:25:58;41.70;54.10
15083;DHT22;7640;53.116;6.878;2022-09-04T16:28:38;41.50;54.40
15083;DHT22;7640;53.116;6.878;2022-09-04T16:31:12;41.30;54.50
15083;DHT22;7640;53.116;6.878;2022-09-04T16:33:47;40.80;55.10
15083;DHT22;7640;53.116;6.878;2022-09-04T16:36:22;40.40;55.50
15083;DHT22;7640;53.116;6.878;2022-09-04T16:38:55;40.00;55.80
15083;DHT22;7640;53.116;6.878;2022-09-04T16:41:31;39.30;56.40
15083;DHT22;7640;53.116;6.878;2022-09-04T16:44:14;38.40;57.00
15083;DHT22;7640;53.116;6.878;2022-09-04T16:46:55;37.30;57.60
15083;DHT22;7640;53.116;6.878;2022-09-04T16:49:35;36.30;59.10
15083;DHT22;7640;53.116;6.878;2022-09-04T16:52:28;35.50;60.20
15083;DHT22;7640;53.116;6.878;2022-09-04T16:55:28;34.60;61.40
15083;DHT22;7640;53.116;6.878;2022-09-04T16:58:11;33.80;63.10
15083;DHT22;7640;53.116;6.878;2022-09-04T17:01:06;33.20;64.30
15083;DHT22;7640;53.116;6.878;2022-09-04T17:04:07;32.50;65.70
15083;DHT22;7640;53.116;6.878;2022-09-04T17:06:53;32.10;66.80
15083;DHT22;7640;53.116;6.878;2022-09-04T17:09:50;31.50;68.00
15083;DHT22;7640;53.116;6.878;2022-09-04T17:12:39;31.10;68.90
15083;DHT22;7640;53.116;6.878;2022-09-04T17:15:20;30.60;70.20
15083;DHT22;7640;53.116;6.878;2022-09-04T17:17:52;30.30;71.20
15083;DHT22;7640;53.116;6.878;2022-09-04T17:20:24;30.00;72.00
15083;DHT22;7640;53.116;6.878;2022-09-04T17:23:19;29.70;72.80
15083;DHT22;7640;53.116;6.878;2022-09-04T17:26:12;29.40;73.40
15083;DHT22;7640;53.116;6.878;2022-09-04T17:29:05;29.10;74.20
15083;DHT22;7640;53.116;6.878;2022-09-04T17:31:59;28.80;75.00
15083;DHT22;7640;53.116;6.878;2022-09-04T17:34:58;28.60;75.80
15083;DHT22;7640;53.116;6.878;2022-09-04T17:37:53;28.30;76.40
15083;DHT22;7640;53.116;6.878;2022-09-04T17:40:59;28.10;76.90
15083;DHT22;7640;53.116;6.878;2022-09-04T17:44:04;27.90;77.50
15083;DHT22;7640;53.116;6.878;2022-09-04T17:46:44;27.70;78.20
15083;DHT22;7640;53.116;6.878;2022-09-04T17:49:17;27.50;78.80
15083;DHT22;7640;53.116;6.878;2022-09-04T17:51:57;27.30;79.30
15083;DHT22;7640;53.116;6.878;2022-09-04T17:54:29;27.20;80.00
15083;DHT22;7640;53.116;6.878;2022-09-04T17:57:02;27.00;80.50
15083;DHT22;7640;53.116;6.878;2022-09-04T17:59:37;26.80;81.00
15083;DHT22;7640;53.116;6.878;2022-09-04T18:02:14;26.70;81.40
15083;DHT22;7640;53.116;6.878;2022-09-04T18:04:50;26.50;82.20
15083;DHT22;7640;53.116;6.878;2022-09-04T18:07:26;26.40;83.00
15083;DHT22;7640;53.116;6.878;2022-09-04T18:10:22;26.30;83.30
15083;DHT22;7640;53.116;6.878;2022-09-04T18:13:04;26.10;83.70
15083;DHT22;7640;53.116;6.878;2022-09-04T18:16:17;25.90;84.30
15083;DHT22;7640;53.116;6.878;2022-09-04T18:19:13;25.80;84.90
15083;DHT22;7640;53.116;6.878;2022-09-04T18:21:46;25.60;85.60
15083;DHT22;7640;53.116;6.878;2022-09-04T18:24:37;25.80;86.60
15083;DHT22;7640;53.116;6.878;2022-09-04T18:27:13;25.30;86.70
15083;DHT22;7640;53.116;6.878;2022-09-04T18:29:52;25.20;87.00
15083;DHT22;7640;53.116;6.878;2022-09-04T18:32:52;25.20;87.30
15083;DHT22;7640;53.116;6.878;2022-09-04T18:35:51;25.10;87.60
15083;DHT22;7640;53.116;6.878;2022-09-04T18:38:53;25.00;87.90
15083;DHT22;7640;53.116;6.878;2022-09-04T18:41:56;24.90;88.30
15083;DHT22;7640;53.116;6.878;2022-09-04T18:45:01;24.80;88.80
15083;DHT22;7640;53.116;6.878;2022-09-04T18:47:54;24.70;89.30
15083;DHT22;7640;53.116;6.878;2022-09-04T18:50:50;24.60;89.70
15083;DHT22;7640;53.116;6.878;2022-09-04T18:53:47;24.50;89.70
15083;DHT22;7640;53.116;6.878;2022-09-04T18:56:21;24.50;90.10
15083;DHT22;7640;53.116;6.878;2022-09-04T18:58:57;24.40;90.10
15083;DHT22;7640;53.116;6.878;2022-09-04T19:01:37;24.40;90.20
15083;DHT22;7640;53.116;6.878;2022-09-04T19:04:36;24.30;90.40
15083;DHT22;7640;53.116;6.878;2022-09-04T19:07:09;24.30;90.50
15083;DHT22;7640;53.116;6.878;2022-09-04T19:10:15;24.20;90.70
15083;DHT22;7640;53.116;6.878;2022-09-04T19:12:59;24.10;90.70
15083;DHT22;7640;53.116;6.878;2022-09-04T19:15:44;24.00;91.10
15083;DHT22;7640;53.116;6.878;2022-09-04T19:18:23;24.00;91.20
15083;DHT22;7640;53.116;6.878;2022-09-04T19:21:27;23.60;91.30
15083;DHT22;7640;53.116;6.878;2022-09-04T19:24:16;23.90;91.40
15083;DHT22;7640;53.116;6.878;2022-09-04T19:27:06;23.90;91.60
15083;DHT22;7640;53.116;6.878;2022-09-04T19:29:59;23.80;91.70